< < Back
Terminal Aerodrome Forecast


Current Version              Previous Versions:   1  2  3  4  5  6  7  8  9  

Terminal Aerodrome Forecast

808
FTUS42 KGSP 271120
TAFCLT
TAF
KCLT 271120Z 2712/2812 00000KT 4SM BR BKN050
      TEMPO 2712/2714 SCT050 BKN250
     FM271400 36003KT P6SM BKN050
     FM280300 05007KT P6SM BKN045=

Latest METAR

075
SAUS70 KWBC 272100 RRA
MTRCLT
METAR KCLT 272052Z 34005KT 10SM FEW050 SCT250 09/M05 A3035 RMK AO2
SLP281 T00941050 55006


USA.gov is the U.S. government's official web portal to all federal, state and local government web resources and services.